Time;durP1;ratioP1;P1;durP2;ratioP2;P2;SDS_P1;SDS_P2;PMS_P1;PMS_P2;Temp;Humidity;BMP_temperature;BMP_pressure;BME280_temperature;BME280_humidity;BME280_pressure;Samples;Min_cycle;Max_cycle;Signal;HPM_P1;HPM_P2
2022/11/24 00:00:05;;;;;;;3.20;1.73;;;;;;;5.66;85.09;97763.91;4991703;28;20420;-81
2022/11/24 00:02:31;;;;;;;2.85;2.20;;;;;;;5.80;84.87;97767.84;5015107;28;20087;-82
2022/11/24 00:04:56;;;;;;;6.75;2.03;;;;;;;5.67;85.87;97754.16;5024675;28;20025;-82
2022/11/24 00:07:21;;;;;;;5.25;2.75;;;;;;;5.14;87.06;97744.91;5005470;28;20124;-82
2022/11/24 00:09:47;;;;;;;4.32;2.75;;;;;;;5.18;87.13;97742.56;4987129;28;20130;-81
2022/11/24 00:12:12;;;;;;;3.72;2.45;;;;;;;5.33;87.04;97761.31;4998252;28;20996;-82
2022/11/24 00:14:38;;;;;;;5.15;2.83;;;;;;;5.11;87.96;97763.88;5021923;28;20033;-81
2022/11/24 00:17:03;;;;;;;7.07;2.65;;;;;;;5.17;87.58;97773.53;5016729;28;20025;-81
2022/11/24 00:19:29;;;;;;;4.25;1.90;;;;;;;5.11;87.88;97768.38;5018897;28;20539;-81
2022/11/24 00:21:54;;;;;;;6.63;2.83;;;;;;;5.13;87.35;97753.06;5026021;28;20026;-81
2022/11/24 00:24:19;;;;;;;2.78;2.10;;;;;;;5.04;86.98;97750.03;5023275;28;20095;-81
2022/11/24 00:26:45;;;;;;;3.58;2.10;;;;;;;5.32;86.48;97788.81;5008425;28;20822;-81
2022/11/24 00:29:11;;;;;;;8.57;2.67;;;;;;;5.05;87.19;97775.41;5025275;28;20037;-81
2022/11/24 00:31:38;;;;;;;6.15;2.35;;;;;;;5.35;86.92;97772.47;5022435;28;20117;-81
2022/11/24 00:34:06;;;;;;;4.72;2.70;;;;;;;5.09;87.97;97788.94;5041105;28;20241;-81
2022/11/24 00:36:34;;;;;;;3.30;2.05;;;;;;;5.45;86.49;97788.50;5022336;28;20036;-81
2022/11/24 00:39:05;;;;;;;4.72;2.53;;;;;;;5.21;85.81;97785.22;5024519;28;20121;-81
2022/11/24 00:41:31;;;;;;;4.40;2.33;;;;;;;5.21;85.95;97756.13;5022758;28;20086;-81
2022/11/24 00:43:57;;;;;;;3.53;2.20;;;;;;;5.30;86.48;97790.91;5015292;28;21241;-81
2022/11/24 00:46:24;;;;;;;2.65;2.15;;;;;;;5.39;85.66;97794.75;5023526;28;20033;-81
2022/11/24 00:48:50;;;;;;;2.47;2.28;;;;;;;5.20;85.84;97793.38;4993088;28;20041;-82
2022/11/24 00:51:18;;;;;;;3.85;2.00;;;;;;;5.11;85.81;97802.75;5005225;28;20044;-82
2022/11/24 00:53:43;;;;;;;1.77;1.67;;;;;;;5.13;86.04;97780.31;5003629;28;20032;-81
2022/11/24 00:56:10;;;;;;;2.88;2.47;;;;;;;5.02;85.39;97804.97;5021463;28;20033;-81
2022/11/24 00:58:35;;;;;;;5.78;2.28;;;;;;;5.28;85.61;97811.50;5024259;28;20048;-81
2022/11/24 01:01:25;;;;;;;6.03;2.75;;;;;;;5.20;85.66;97812.69;5019114;28;20892;-82
2022/11/24 01:03:52;;;;;;;11.38;4.18;;;;;;;4.93;85.75;97816.19;5036362;28;20061;-81
2022/11/24 01:06:20;;;;;;;4.30;3.15;;;;;;;4.92;86.14;97818.03;5019419;28;20029;-81
2022/11/24 01:08:46;;;;;;;5.82;3.92;;;;;;;4.54;86.64;97826.56;5020788;28;20033;-81
2022/11/24 01:11:14;;;;;;;3.05;2.40;;;;;;;4.80;87.46;97808.56;5010528;28;20049;-81
2022/11/24 01:13:41;;;;;;;8.50;3.33;;;;;;;5.14;84.98;97831.34;5019331;28;20034;-81
2022/11/24 01:16:28;;;;;;;10.30;5.18;;;;;;;4.57;87.23;97827.94;5000945;28;20559;-81
2022/11/24 01:18:53;;;;;;;;;;;;;;;4.69;86.34;97831.34;5006961;28;20033;-81
2022/11/24 01:21:20;;;;;;;7.73;5.27;;;;;;;4.60;86.78;97829.31;5024614;28;20392;-81
2022/11/24 01:23:45;;;;;;;4.47;2.65;;;;;;;4.72;88.36;97835.38;5023992;28;20250;-81
2022/11/24 01:26:14;;;;;;;10.77;5.75;;;;;;;4.57;86.79;97831.38;5029704;28;20112;-81
2022/11/24 01:28:40;;;;;;;10.43;6.40;;;;;;;4.22;88.45;97840.41;5017412;28;20036;-82
2022/11/24 01:31:06;;;;;;;9.25;7.32;;;;;;;4.16;88.74;97823.69;5024546;28;20029;-81
2022/11/24 01:33:33;;;;;;;3.50;2.97;;;;;;;4.53;88.18;97811.75;5024619;28;20504;-81
2022/11/24 01:35:59;;;;;;;9.00;6.55;;;;;;;3.75;89.59;97829.13;5019272;28;20033;-81
2022/11/24 01:38:26;;;;;;;7.28;5.03;;;;;;;4.14;90.11;97844.25;5023437;28;20504;-81
2022/11/24 01:41:21;;;;;;;4.22;3.42;;;;;;;4.72;88.05;97851.22;5018899;28;20474;-81
2022/11/24 01:43:47;;;;;;;16.20;7.30;;;;;;;4.33;88.65;97848.31;5019416;28;20037;-81
2022/11/24 01:46:38;;;;;;;16.77;10.00;;;;;;;3.51;91.02;97843.31;5011708;28;20038;-82
2022/11/24 01:49:07;;;;;;;10.50;6.45;;;;;;;3.67;91.63;97848.72;5026805;28;20052;-81
2022/11/24 01:51:37;;;;;;;7.38;4.28;;;;;;;4.62;88.82;97854.47;5019014;28;20500;-81
2022/11/24 01:54:26;;;;;;;6.97;3.85;;;;;;;5.03;86.27;97837.50;5018704;28;20034;-82
2022/11/24 01:56:55;;;;;;;6.22;3.75;;;;;;;5.21;85.12;97843.41;5020456;28;20025;-81
2022/11/24 01:59:21;;;;;;;10.80;5.13;;;;;;;5.07;85.71;97854.50;5015878;28;20545;-81
2022/11/24 02:01:50;;;;;;;7.85;4.75;;;;;;;5.05;85.00;97827.50;5016396;28;20128;-82
2022/11/24 02:04:19;;;;;;;6.38;4.13;;;;;;;4.69;87.20;97830.53;5023852;28;20040;-81
2022/11/24 02:06:46;;;;;;;11.75;5.00;;;;;;;4.70;87.58;97855.91;5023417;28;20026;-81
2022/11/24 02:09:18;;;;;;;11.73;6.38;;;;;;;5.10;86.22;97861.97;5006522;28;20121;-81
2022/11/24 02:11:44;;;;;;;7.53;5.63;;;;;;;4.81;87.25;97840.03;5015403;28;20049;-81
2022/11/24 02:14:12;;;;;;;14.55;5.03;;;;;;;5.03;86.56;97848.09;5007588;28;20418;-81
2022/11/24 02:16:40;;;;;;;14.18;7.97;;;;;;;4.68;87.29;97836.84;5013957;28;20052;-81
2022/11/24 02:19:16;;;;;;;6.30;4.80;;;;;;;5.24;85.04;97839.50;5018137;28;20025;-82
2022/11/24 02:21:42;;;;;;;9.05;5.03;;;;;;;5.39;84.58;97847.69;5016514;28;20028;-81
2022/11/24 02:24:28;;;;;;;8.77;4.55;;;;;;;5.40;84.77;97856.38;5002964;28;20029;-81
2022/11/24 02:26:53;;;;;;;10.65;5.72;;;;;;;5.23;84.50;97849.25;5019421;28;20171;-81
2022/11/24 02:29:19;;;;;;;6.07;4.45;;;;;;;5.30;85.31;97860.50;5005441;28;20034;-81
2022/11/24 02:31:53;;;;;;;9.68;4.85;;;;;;;5.43;84.76;97871.81;5015651;28;20033;-81
2022/11/24 02:34:19;;;;;;;5.85;4.20;;;;;;;5.58;83.67;97864.91;5021937;28;20033;-81
2022/11/24 02:36:45;;;;;;;9.52;4.20;;;;;;;5.43;83.73;97851.44;5022936;28;20681;-81
2022/11/24 02:39:12;;;;;;;8.45;4.30;;;;;;;5.42;83.75;97855.13;5023707;28;20033;-81
2022/11/24 02:41:41;;;;;;;9.27;4.97;;;;;;;5.51;83.43;97874.03;4997358;28;20040;-81
2022/11/24 02:44:07;;;;;;;9.82;5.43;;;;;;;5.46;83.64;97874.75;5020781;28;20465;-82
2022/11/24 02:46:32;;;;;;;7.03;4.22;;;;;;;5.31;83.50;97856.78;5012894;28;20112;-81
2022/11/24 02:48:58;;;;;;;8.35;4.63;;;;;;;5.24;83.97;97850.06;4987485;28;20053;-82
2022/11/24 02:51:23;;;;;;;11.38;4.88;;;;;;;5.37;84.27;97880.69;5018870;28;20051;-82
2022/11/24 02:53:49;;;;;;;11.20;4.32;;;;;;;5.45;83.81;97886.41;5025120;28;20112;-81
2022/11/24 02:56:14;;;;;;;12.60;4.63;;;;;;;5.32;83.95;97884.06;5025420;28;20378;-81
2022/11/24 02:58:40;;;;;;;11.80;4.03;;;;;;;5.32;85.29;97884.06;5023489;28;20478;-81
2022/11/24 03:01:05;;;;;;;9.50;4.57;;;;;;;5.42;84.26;97873.63;5007220;28;20033;-81
2022/11/24 03:03:31;;;;;;;8.43;4.03;;;;;;;5.57;84.10;97886.34;5007933;28;20030;-81
2022/11/24 03:05:56;;;;;;;12.95;4.40;;;;;;;5.29;84.56;97881.88;5005315;28;20038;-81
2022/11/24 03:08:22;;;;;;;11.00;4.68;;;;;;;5.34;84.33;97879.34;4995060;28;20033;-81
2022/11/24 03:10:48;;;;;;;9.25;4.22;;;;;;;5.34;84.94;97895.19;5011249;28;20041;-81
2022/11/24 03:13:13;;;;;;;12.18;4.72;;;;;;;5.52;84.73;97894.19;5023477;28;20037;-81
2022/11/24 03:15:39;;;;;;;14.10;4.68;;;;;;;5.27;85.19;97878.66;5020341;28;20050;-81
2022/11/24 03:18:04;;;;;;;10.02;3.90;;;;;;;4.94;86.76;97865.38;5022121;28;20084;-81
2022/11/24 03:20:30;;;;;;;8.25;3.72;;;;;;;5.05;86.55;97890.97;5006348;28;20037;-81
2022/11/24 03:22:55;;;;;;;15.98;6.20;;;;;;;4.70;88.25;97880.50;5003452;28;20040;-81
2022/11/24 03:25:21;;;;;;;18.73;6.85;;;;;;;4.37;90.48;97899.66;5009141;28;20033;-81
2022/11/24 03:27:47;;;;;;;13.35;5.68;;;;;;;4.45;90.23;97896.69;5022083;28;20038;-80
2022/11/24 03:30:13;;;;;;;15.85;6.55;;;;;;;4.54;91.16;97908.47;5021745;28;20031;-81
2022/11/24 03:32:39;;;;;;;22.23;6.95;;;;;;;4.09;93.20;97907.47;5019494;28;20116;-81
2022/11/24 03:35:05;;;;;;;19.90;5.47;;;;;;;3.79;94.79;97912.88;5007450;28;20179;-81
2022/11/24 03:37:30;;;;;;;13.07;7.63;;;;;;;3.58;94.97;97891.50;5008181;28;20038;-81
2022/11/24 03:39:55;;;;;;;13.52;6.40;;;;;;;3.80;93.72;97897.81;5006731;28;20584;-81
2022/11/24 03:42:21;;;;;;;10.32;6.00;;;;;;;4.02;92.36;97912.06;5005605;28;20489;-81
2022/11/24 03:44:47;;;;;;;24.92;7.43;;;;;;;3.85;91.37;97883.94;5023969;28;20424;-81
2022/11/24 03:47:12;;;;;;;13.63;5.13;;;;;;;3.97;90.92;97903.25;5009289;28;20022;-81
2022/11/24 03:49:38;;;;;;;17.33;6.85;;;;;;;3.50;93.05;97910.28;5006865;28;20136;-81
2022/11/24 03:52:03;;;;;;;18.05;7.75;;;;;;;3.58;92.29;97904.69;5018231;28;20087;-81
2022/11/24 03:54:29;;;;;;;23.13;7.53;;;;;;;3.31;93.32;97906.13;5023922;28;20045;-81
2022/11/24 03:56:54;;;;;;;11.30;4.10;;;;;;;4.18;91.77;97913.22;5019808;28;20034;-82
2022/11/24 03:59:20;;;;;;;7.20;3.42;;;;;;;4.17;89.54;97915.06;5006037;28;20037;-82
2022/11/24 04:01:45;;;;;;;8.95;4.53;;;;;;;4.83;87.80;97933.09;5014431;28;20033;-81
2022/11/24 04:04:11;;;;;;;6.75;4.05;;;;;;;5.21;85.24;97936.00;5002412;28;20044;-82
2022/11/24 04:06:37;;;;;;;13.40;4.38;;;;;;;5.19;84.72;97924.03;5019346;28;20029;-81
2022/11/24 04:09:03;;;;;;;7.53;3.45;;;;;;;5.17;85.37;97945.44;4987124;28;20076;-81
2022/11/24 04:14:12;;;;;;;9.68;3.72;;;;;;;4.69;86.42;97954.75;5022376;28;20125;-81
2022/11/24 04:16:37;;;;;;;15.85;5.32;;;;;;;4.65;85.05;97935.13;5005646;28;20033;-81
2022/11/24 04:19:03;;;;;;;7.35;4.00;;;;;;;4.50;88.14;97932.94;5008829;28;20033;-81
2022/11/24 04:21:28;;;;;;;12.23;4.15;;;;;;;5.18;85.42;97954.16;5024414;28;20025;-81
2022/11/24 04:23:53;;;;;;;10.73;4.03;;;;;;;5.29;84.33;97955.94;5026367;28;20962;-81
2022/11/24 04:26:19;;;;;;;12.43;4.25;;;;;;;5.17;84.40;97940.16;5023894;28;20094;-81
2022/11/24 04:28:44;;;;;;;7.70;4.55;;;;;;;5.30;83.30;97947.00;4987606;28;20026;-81
2022/11/24 04:31:10;;;;;;;7.32;3.47;;;;;;;5.25;84.49;97952.97;5022370;28;21657;-81
2022/11/24 04:33:35;;;;;;;15.68;3.88;;;;;;;5.18;84.84;97957.59;5009069;28;20044;-82
2022/11/24 04:36:00;;;;;;;16.67;4.78;;;;;;;4.41;85.96;97944.91;5018978;28;20029;-81
2022/11/24 04:38:26;;;;;;;8.63;3.80;;;;;;;4.92;85.73;97941.47;5011648;28;20029;-81
2022/11/24 04:40:51;;;;;;;8.18;4.63;;;;;;;5.00;84.78;97941.13;5005109;28;20476;-81
2022/11/24 04:43:18;;;;;;;9.85;3.60;;;;;;;5.39;84.38;97958.00;5025457;28;20030;-81
2022/11/24 04:45:43;;;;;;;11.90;4.30;;;;;;;5.23;83.62;97936.56;5017163;28;20429;-81
2022/11/24 04:48:09;;;;;;;8.40;3.93;;;;;;;5.33;83.49;97935.91;4974996;28;1138117;-81
2022/11/24 04:50:35;;;;;;;11.95;4.10;;;;;;;5.08;83.68;97951.31;5002828;28;20283;-81
2022/11/24 04:53:01;;;;;;;7.60;3.47;;;;;;;5.42;84.24;97965.47;5022762;28;20029;-81
2022/11/24 04:55:26;;;;;;;8.98;3.83;;;;;;;5.35;83.45;97947.09;5003078;28;20081;-81
2022/11/24 04:57:51;;;;;;;14.00;4.30;;;;;;;5.57;83.71;97976.31;5004471;28;20049;-81
2022/11/24 05:00:19;;;;;;;12.13;4.20;;;;;;;5.23;83.95;97948.97;5021959;28;20041;-81
2022/11/24 05:02:44;;;;;;;11.18;3.40;;;;;;;5.45;83.04;97973.72;5014425;28;20034;-81
2022/11/24 05:05:09;;;;;;;5.85;3.25;;;;;;;5.61;82.94;97994.16;4990005;28;20037;-81
2022/11/24 05:07:35;;;;;;;8.13;3.45;;;;;;;5.42;83.13;97979.47;5019232;28;20452;-81
2022/11/24 05:12:52;;;;;;;9.30;3.72;;;;;;;5.55;83.18;97989.78;5014950;28;20520;-81
2022/11/24 05:15:17;;;;;;;8.43;3.83;;;;;;;5.47;84.34;97998.09;5020907;28;20120;-81
2022/11/24 05:17:43;;;;;;;7.70;3.40;;;;;;;5.42;84.07;97982.13;5022999;28;20165;-81
2022/11/24 05:20:08;;;;;;;11.05;4.40;;;;;;;5.40;84.21;97996.63;4987936;28;20037;-81
2022/11/24 05:22:34;;;;;;;14.30;4.78;;;;;;;5.37;85.10;97984.69;5018084;28;20040;-81
2022/11/24 05:24:59;;;;;;;17.88;5.75;;;;;;;5.44;84.73;98003.06;5017586;28;20034;-81
2022/11/24 05:27:25;;;;;;;18.73;4.43;;;;;;;5.34;85.49;97987.81;5023729;28;20116;-81
2022/11/24 05:29:50;;;;;;;11.75;4.22;;;;;;;5.43;85.61;97986.38;5019066;28;20087;-81
2022/11/24 05:32:15;;;;;;;11.27;4.28;;;;;;;5.41;85.18;97999.06;4985538;28;20044;-82
2022/11/24 05:34:53;;;;;;;15.88;4.53;;;;;;;5.33;85.38;98007.34;5001205;28;20040;-82
2022/11/24 05:37:19;;;;;;;15.20;3.97;;;;;;;5.48;85.48;98012.97;5019799;28;20045;-82
2022/11/24 05:39:44;;;;;;;21.13;5.03;;;;;;;5.36;86.61;98027.25;5013211;28;21175;-81
2022/11/24 05:44:56;;;;;;;12.95;5.50;;;;;;;5.09;88.35;98038.34;5024444;28;20029;-81
2022/11/24 05:47:22;;;;;;;11.15;5.30;;;;;;;4.97;88.69;98039.41;5024007;28;20025;-81
2022/11/24 05:49:48;;;;;;;18.58;5.15;;;;;;;5.01;87.83;98033.44;5023583;28;20029;-81
2022/11/24 05:52:14;;;;;;;13.07;4.82;;;;;;;4.92;89.03;98026.88;5025627;28;20045;-81
2022/11/24 05:54:40;;;;;;;20.85;6.00;;;;;;;4.66;89.67;98016.00;5027539;28;20478;-81
2022/11/24 05:57:05;;;;;;;14.40;5.22;;;;;;;4.66;90.12;98010.72;5009899;28;20083;-82
2022/11/24 05:59:31;;;;;;;13.05;4.40;;;;;;;4.79;89.12;98019.22;5026157;28;20029;-82
2022/11/24 06:01:56;;;;;;;14.50;5.63;;;;;;;4.81;88.36;98003.09;5023749;28;20053;-82
2022/11/24 06:04:21;;;;;;;17.40;5.28;;;;;;;4.97;88.45;98034.13;5026817;28;20038;-82
2022/11/24 06:06:47;;;;;;;11.68;4.90;;;;;;;4.90;88.24;98028.16;5028425;28;20048;-81
2022/11/24 06:09:12;;;;;;;14.88;4.95;;;;;;;4.93;88.21;98038.28;5030229;28;20112;-81
2022/11/24 06:11:38;;;;;;;12.75;4.75;;;;;;;4.95;88.12;98041.50;5004982;28;20036;-82
2022/11/24 06:14:03;;;;;;;21.50;5.25;;;;;;;4.77;88.52;98033.69;5003656;28;20038;-81
2022/11/24 06:16:28;;;;;;;16.52;4.10;;;;;;;4.82;88.09;98026.69;5026964;28;20033;-81
2022/11/24 06:18:54;;;;;;;10.90;4.88;;;;;;;5.00;87.41;98041.59;5010614;28;20509;-81
2022/11/24 06:21:19;;;;;;;12.57;4.88;;;;;;;4.98;87.55;98035.75;5029193;28;20036;-82
2022/11/24 06:23:48;;;;;;;18.13;4.75;;;;;;;4.88;87.27;98028.41;5005672;28;20034;-81
2022/11/24 06:26:13;;;;;;;13.63;4.15;;;;;;;4.80;87.98;98028.75;5027617;28;20040;-81
2022/11/24 06:28:39;;;;;;;13.95;5.05;;;;;;;4.95;87.84;98049.41;5026873;28;20100;-81
2022/11/24 06:31:04;;;;;;;11.70;4.50;;;;;;;4.77;88.40;98049.53;5028457;28;20029;-82
2022/11/24 06:33:34;;;;;;;15.75;5.32;;;;;;;4.72;89.42;98042.31;5006267;28;20063;-81
2022/11/24 06:36:12;;;;;;;13.27;4.82;;;;;;;4.79;88.20;98050.13;5025316;28;20025;-81
2022/11/24 06:38:37;;;;;;;19.90;5.85;;;;;;;4.67;87.79;98034.28;5025022;28;20041;-81
2022/11/24 06:41:13;;;;;;;13.32;4.90;;;;;;;4.83;87.50;98040.69;5023132;28;20040;-82
2022/11/24 06:43:39;;;;;;;16.33;5.65;;;;;;;4.81;88.30;98045.41;4999357;28;20022;-81
2022/11/24 06:46:05;;;;;;;13.13;5.70;;;;;;;4.76;87.45;98050.59;5025518;28;20021;-81
2022/11/24 06:48:30;;;;;;;16.77;5.88;;;;;;;4.86;87.15;98059.56;5028471;28;20079;-81
2022/11/24 06:51:00;;;;;;;11.88;5.82;;;;;;;4.88;86.72;98057.47;5026162;28;20037;-81
2022/11/24 06:53:29;;;;;;;9.68;5.75;;;;;;;4.80;86.53;98059.66;5028508;28;20033;-81
2022/11/24 06:55:58;;;;;;;12.68;5.53;;;;;;;4.79;86.24;98064.16;5027217;28;20110;-81
2022/11/24 06:58:23;;;;;;;20.23;6.50;;;;;;;4.41;88.45;98066.44;5025227;28;20030;-81
2022/11/24 07:00:49;;;;;;;13.63;5.63;;;;;;;4.61;87.84;98072.19;5023298;28;20025;-81
2022/11/24 07:03:15;;;;;;;14.45;6.50;;;;;;;4.53;87.56;98091.03;5007048;28;20036;-81
2022/11/24 07:05:42;;;;;;;13.65;7.05;;;;;;;4.45;88.30;98086.91;5027301;28;20030;-81
2022/11/24 07:08:08;;;;;;;15.55;6.65;;;;;;;4.24;89.03;98057.53;5024970;28;20029;-80
2022/11/24 07:10:33;;;;;;;12.55;5.78;;;;;;;4.29;88.86;98084.09;5028716;28;20488;-81
2022/11/24 07:12:59;;;;;;;14.63;5.75;;;;;;;4.40;89.43;98092.03;5029641;28;20648;-81
2022/11/24 07:15:24;;;;;;;19.30;5.90;;;;;;;3.96;90.39;98086.41;5027616;28;20041;-81
2022/11/24 07:17:49;;;;;;;18.08;5.18;;;;;;;3.96;90.12;98060.00;5025418;28;20183;-81
2022/11/24 07:20:15;;;;;;;10.65;6.13;;;;;;;4.22;88.74;98078.09;5020796;28;20041;-81
2022/11/24 07:22:41;;;;;;;14.48;5.28;;;;;;;4.41;89.29;98106.84;5019383;28;20033;-81
2022/11/24 07:25:08;;;;;;;24.52;5.53;;;;;;;4.30;89.55;98107.63;5026215;28;20064;-81
2022/11/24 07:27:34;;;;;;;20.55;6.20;;;;;;;4.51;89.11;98112.41;5024557;28;20025;-81
2022/11/24 07:29:59;;;;;;;16.10;5.10;;;;;;;4.60;89.15;98114.69;5028359;28;20029;-81
2022/11/24 07:32:25;;;;;;;13.73;5.75;;;;;;;4.53;89.03;98097.13;5028305;28;20033;-81
2022/11/24 07:34:50;;;;;;;14.50;5.18;;;;;;;4.72;89.90;98116.31;5012389;28;20120;-81
2022/11/24 07:37:15;;;;;;;14.98;5.53;;;;;;;4.77;89.83;98121.72;5025191;28;20033;-81
2022/11/24 07:39:41;;;;;;;18.73;5.70;;;;;;;4.68;90.48;98117.00;5009620;28;20036;-81
2022/11/24 07:42:07;;;;;;;19.42;6.20;;;;;;;4.79;90.90;98101.16;5011653;28;20041;-81
2022/11/24 07:44:32;;;;;;;17.27;5.05;;;;;;;4.84;90.68;98116.31;5015404;28;20119;-81
2022/11/24 07:46:58;;;;;;;7.70;5.40;;;;;;;4.90;90.16;98110.94;5027875;28;20109;-81
2022/11/24 07:49:24;;;;;;;19.45;6.25;;;;;;;4.83;90.57;98101.50;4998466;28;20030;-81
2022/11/24 07:51:49;;;;;;;22.75;5.65;;;;;;;4.89;91.52;98111.16;5014862;28;20057;-81
2022/11/24 07:54:15;;;;;;;15.35;5.38;;;;;;;4.81;91.64;98096.44;5031185;28;20656;-81
2022/11/24 07:56:40;;;;;;;11.48;5.68;;;;;;;5.04;92.73;98130.00;5012532;28;20406;-81
2022/11/24 07:59:06;;;;;;;24.05;5.57;;;;;;;5.15;92.09;98137.13;5028606;28;20029;-81
2022/11/24 08:01:32;;;;;;;19.15;6.13;;;;;;;5.06;92.33;98118.19;5030365;28;20029;-81
2022/11/24 08:03:57;;;;;;;17.77;4.72;;;;;;;5.21;92.52;98139.66;5016288;28;20033;-81
2022/11/24 08:06:22;;;;;;;24.33;5.85;;;;;;;5.07;92.39;98119.78;5032012;28;20029;-81
2022/11/24 08:08:48;;;;;;;24.23;5.88;;;;;;;5.21;92.41;98118.50;5031887;28;20163;-81
2022/11/24 08:11:15;;;;;;;19.25;5.25;;;;;;;5.31;92.13;98139.06;5015935;28;20037;-81
2022/11/24 08:13:42;;;;;;;17.33;6.10;;;;;;;5.31;92.23;98142.53;5030640;28;20492;-81
2022/11/24 08:16:09;;;;;;;22.25;5.95;;;;;;;5.47;93.03;98140.19;5031116;28;20025;-81
2022/11/24 08:18:36;;;;;;;19.17;5.63;;;;;;;5.44;93.10;98132.75;5029074;28;20034;-81
2022/11/24 08:21:01;;;;;;;19.70;5.35;;;;;;;5.47;92.60;98140.19;5033260;28;20029;-80
2022/11/24 08:23:28;;;;;;;29.17;6.68;;;;;;;5.56;92.00;98142.25;5031946;28;20033;-81
2022/11/24 08:25:55;;;;;;;20.52;5.13;;;;;;;5.45;92.89;98132.50;5032209;28;20036;-80
2022/11/24 08:28:20;;;;;;;10.07;4.13;;;;;;;5.63;93.67;98152.72;5031406;28;20025;-81
2022/11/24 08:30:46;;;;;;;23.40;5.00;;;;;;;5.64;93.37;98156.97;5032194;28;20083;-81
2022/11/24 08:33:11;;;;;;;19.38;4.70;;;;;;;5.75;93.13;98161.44;5015442;28;20112;-81
2022/11/24 08:35:37;;;;;;;23.08;5.57;;;;;;;5.76;92.93;98166.50;5032831;28;20041;-81
2022/11/24 08:38:04;;;;;;;25.17;6.97;;;;;;;5.72;93.56;98144.16;5030791;28;20501;-81
2022/11/24 08:40:30;;;;;;;22.33;6.63;;;;;;;5.88;93.24;98169.13;5033730;28;20029;-81
2022/11/24 08:42:59;;;;;;;19.55;6.15;;;;;;;5.87;92.88;98157.75;5031721;28;20033;-81
2022/11/24 08:45:26;;;;;;;21.85;5.55;;;;;;;5.97;92.96;98173.84;5011287;28;20560;-80
2022/11/24 08:47:53;;;;;;;25.27;5.60;;;;;;;6.00;93.12;98172.56;5031714;28;20373;-81
2022/11/24 08:50:18;;;;;;;23.40;6.45;;;;;;;5.96;92.35;98155.53;5031247;28;20025;-81
2022/11/24 08:52:44;;;;;;;24.45;5.25;;;;;;;6.03;92.46;98167.59;5014474;28;20375;-81
2022/11/24 08:55:10;;;;;;;22.08;5.90;;;;;;;6.09;92.52;98180.94;5030815;28;20075;-81
2022/11/24 08:57:36;;;;;;;22.17;6.88;;;;;;;5.89;93.74;98158.31;5030810;28;20060;-81
2022/11/24 09:00:06;;;;;;;21.83;4.97;;;;;;;6.12;92.87;98191.06;5033117;28;20033;-81
2022/11/24 09:02:31;;;;;;;23.25;6.07;;;;;;;6.29;92.12;98194.59;5013628;28;20401;-81
2022/11/24 09:04:57;;;;;;;14.85;5.70;;;;;;;6.21;91.86;98169.25;5014189;28;20087;-81
2022/11/24 09:07:22;;;;;;;26.10;5.93;;;;;;;6.31;91.86;98190.63;5014540;28;20037;-81
2022/11/24 09:09:48;;;;;;;14.90;5.32;;;;;;;6.21;92.20;98179.03;5030450;28;20029;-81
2022/11/24 09:12:13;;;;;;;15.98;5.90;;;;;;;6.27;91.82;98191.38;5014911;28;20037;-81
2022/11/24 09:14:39;;;;;;;25.52;5.28;;;;;;;6.17;92.17;98172.63;5014081;28;20037;-81
2022/11/24 09:17:04;;;;;;;21.80;6.10;;;;;;;6.15;92.43;98182.66;5028075;28;20041;-81
2022/11/24 09:19:29;;;;;;;17.27;5.18;;;;;;;6.18;92.53;98185.63;5021940;28;20052;-81
2022/11/24 09:21:55;;;;;;;31.40;5.65;;;;;;;6.16;92.12;98181.63;5021209;28;20040;-81
2022/11/24 09:24:20;;;;;;;23.65;5.78;;;;;;;6.13;92.77;98177.59;5013327;28;20504;-81
2022/11/24 09:26:46;;;;;;;20.35;6.75;;;;;;;6.28;93.21;98207.03;5031146;28;20021;-81
2022/11/24 09:29:12;;;;;;;18.75;5.80;;;;;;;6.31;92.52;98192.50;5030297;28;20073;-81
2022/11/24 09:31:38;;;;;;;24.42;6.63;;;;;;;6.35;93.50;98217.47;4997767;28;20458;-81
2022/11/24 09:34:06;;;;;;;19.15;5.97;;;;;;;6.35;92.77;98217.47;5025580;28;20121;-81
2022/11/24 09:36:32;;;;;;;20.15;5.28;;;;;;;6.35;92.81;98220.13;5032399;28;20660;-81
2022/11/24 09:38:58;;;;;;;18.25;5.43;;;;;;;6.26;93.01;98222.34;5013473;28;20117;-81
2022/11/24 09:41:34;;;;;;;24.58;6.32;;;;;;;6.32;93.30;98224.06;5030708;28;20132;-81
2022/11/24 09:44:21;;;;;;;29.17;6.55;;;;;;;6.37;93.76;98229.47;5007261;28;20038;-81
2022/11/24 09:47:07;;;;;;;22.45;5.70;;;;;;;6.31;93.05;98206.53;5031795;28;20013;-81
2022/11/24 09:49:41;;;;;;;23.42;5.13;;;;;;;6.45;92.62;98230.91;5026748;28;20236;-81
2022/11/24 09:52:15;;;;;;;24.15;5.68;;;;;;;6.43;92.67;98233.00;5031211;28;20617;-81
2022/11/24 09:54:51;;;;;;;27.08;5.68;;;;;;;6.37;93.46;98212.75;5030643;28;20454;-81
2022/11/24 09:57:20;;;;;;;24.08;6.35;;;;;;;6.27;93.77;98221.28;5031734;28;20104;-81
2022/11/24 09:59:46;;;;;;;20.83;5.63;;;;;;;6.30;93.89;98233.28;5012244;28;20129;-81
2022/11/24 10:02:14;;;;;;;23.85;5.78;;;;;;;6.35;94.24;98251.94;5013019;28;20437;-81
2022/11/24 10:04:45;;;;;;;21.35;5.72;;;;;;;6.30;94.62;98235.94;5032633;28;20079;-81
2022/11/24 10:07:13;;;;;;;22.08;6.55;;;;;;;6.40;94.59;98252.03;5012277;28;20814;-81
2022/11/24 10:09:50;;;;;;;20.50;5.18;;;;;;;6.51;93.75;98264.44;5027133;28;20030;-81
2022/11/24 10:12:26;;;;;;;18.60;5.80;;;;;;;6.51;93.71;98257.28;5031029;28;20405;-81
2022/11/24 10:15:00;;;;;;;25.67;5.05;;;;;;;6.44;94.10;98258.47;5027058;28;20034;-81
2022/11/24 10:17:50;;;;;;;17.48;5.18;;;;;;;6.49;93.50;98259.34;5028341;28;20559;-81
2022/11/24 10:20:19;;;;;;;19.45;5.97;;;;;;;6.48;93.24;98263.06;5027367;28;20033;-81
2022/11/24 10:23:05;;;;;;;22.63;7.20;;;;;;;6.40;93.14;98250.16;5029976;28;20037;-81
2022/11/24 10:25:46;;;;;;;13.93;5.25;;;;;;;6.37;94.53;98255.97;5023625;28;20030;-81
2022/11/24 10:28:13;;;;;;;18.13;7.00;;;;;;;6.24;93.91;98248.28;5030405;28;20067;-82
2022/11/24 10:30:39;;;;;;;20.90;5.82;;;;;;;6.31;94.37;98258.75;5030186;28;20378;-81
2022/11/24 10:33:18;;;;;;;14.55;4.85;;;;;;;6.38;93.73;98265.50;5009715;28;20033;-81
2022/11/24 10:35:49;;;;;;;21.67;5.22;;;;;;;6.40;94.23;98267.94;5028558;28;20033;-81
2022/11/24 10:38:28;;;;;;;22.95;6.20;;;;;;;6.41;94.59;98261.59;5029897;28;20060;-81
2022/11/24 10:40:58;;;;;;;28.05;5.65;;;;;;;6.25;94.62;98257.00;5030139;28;20104;-81
2022/11/24 10:43:27;;;;;;;20.60;4.93;;;;;;;6.47;92.96;98271.25;5029265;28;20113;-81
2022/11/24 10:45:55;;;;;;;13.10;4.70;;;;;;;6.44;93.65;98266.44;5029497;28;20033;-81
2022/11/24 10:48:25;;;;;;;14.90;5.53;;;;;;;6.36;94.25;98262.28;5025578;28;20394;-81
2022/11/24 10:50:56;;;;;;;21.48;5.45;;;;;;;6.14;96.05;98263.97;5029954;28;20036;-80
2022/11/24 10:53:29;;;;;;;16.23;5.00;;;;;;;6.42;93.35;98255.25;5027555;28;20385;-81
2022/11/24 10:55:56;;;;;;;24.17;5.53;;;;;;;6.68;93.37;98278.56;5030530;28;20401;-81
2022/11/24 10:58:33;;;;;;;18.88;5.35;;;;;;;6.54;93.53;98262.13;5024201;28;20032;-81
2022/11/24 11:01:17;;;;;;;19.73;4.78;;;;;;;6.87;92.68;98274.66;5005817;28;20036;-81
2022/11/24 11:03:54;;;;;;;20.30;5.75;;;;;;;7.11;92.46;98285.94;5032608;28;20018;-81
2022/11/24 11:06:24;;;;;;;17.10;5.28;;;;;;;7.06;92.75;98273.38;5029857;28;20041;-81
2022/11/24 11:09:09;;;;;;;12.88;4.55;;;;;;;7.17;91.55;98272.50;5006520;28;20022;-82
2022/11/24 11:11:37;;;;;;;10.02;4.10;;;;;;;7.20;92.55;98280.00;5029442;28;20036;-81
2022/11/24 11:14:05;;;;;;;14.48;4.45;;;;;;;7.37;91.13;98283.47;5025961;28;20037;-81
2022/11/24 11:16:47;;;;;;;16.30;6.82;;;;;;;7.25;92.44;98282.72;5011596;28;20034;-81
2022/11/24 11:19:43;;;;;;;11.55;3.95;;;;;;;7.57;91.06;98275.81;5031926;28;20029;-81
2022/11/24 11:22:11;;;;;;;12.98;3.95;;;;;;;7.50;90.74;98288.44;5032825;28;20079;-81
2022/11/24 11:24:39;;;;;;;16.73;3.38;;;;;;;7.42;92.39;98290.72;5034348;28;20105;-82
2022/11/24 11:27:15;;;;;;;8.85;4.43;;;;;;;7.73;91.32;98294.63;5033277;28;20021;-81
2022/11/24 11:29:40;;;;;;;;;;;;;;;7.77;90.47;98298.41;5032779;28;20026;-81
2022/11/24 11:32:21;;;;;;;11.57;3.93;;;;;;;7.65;90.87;98284.41;5017716;28;20381;-81
2022/11/24 11:34:50;;;;;;;10.32;3.70;;;;;;;7.53;91.02;98250.78;5031342;28;20635;-82
2022/11/24 11:37:17;;;;;;;11.95;3.55;;;;;;;7.75;90.16;98288.03;5033163;28;20124;-81
2022/11/24 11:39:55;;;;;;;17.65;3.42;;;;;;;7.76;90.06;98286.97;5034485;28;20029;-81
2022/11/24 11:42:33;;;;;;;15.38;4.47;;;;;;;7.86;89.23;98291.63;5031107;28;20099;-81
2022/11/24 11:45:24;;;;;;;14.20;3.42;;;;;;;7.82;89.30;98279.91;5032347;28;20475;-82
2022/11/24 11:48:09;;;;;;;12.95;3.80;;;;;;;7.84;88.55;98299.81;5031855;28;20430;-82